Time;durP1;ratioP1;P1;durP2;ratioP2;P2;SDS_P1;SDS_P2;PMS_P1;PMS_P2;Temp;Humidity;BMP_temperature;BMP_pressure;BME280_temperature;BME280_humidity;BME280_pressure;Samples;Min_cycle;Max_cycle;Signal;HPM_P1;HPM_P2
2021/01/20 00:02:00;;;;;;;3.07;1.70;;;4.90;96.10;;;;;;5092795;28;20217;-48
2021/01/20 00:04:27;;;;;;;2.90;2.03;;;4.90;96.20;;;;;;5092860;28;20202;-46
2021/01/20 00:06:54;;;;;;;1.50;1.40;;;4.90;96.20;;;;;;5092795;28;20253;-46
2021/01/20 00:09:21;;;;;;;1.87;1.60;;;4.90;96.30;;;;;;5091954;28;20241;-45
2021/01/20 00:11:48;;;;;;;1.50;1.40;;;4.80;96.30;;;;;;5092863;28;20217;-47
2021/01/20 00:14:16;;;;;;;1.63;1.20;;;4.80;96.50;;;;;;5092694;28;20214;-44
2021/01/20 00:16:44;;;;;;;1.90;1.67;;;4.70;96.50;;;;;;5092606;28;20301;-44
2021/01/20 00:19:13;;;;;;;1.63;1.50;;;4.70;96.70;;;;;;5092361;28;20242;-47
2021/01/20 00:21:40;;;;;;;2.05;1.85;;;4.70;96.90;;;;;;5092371;28;20207;-46
2021/01/20 00:24:08;;;;;;;2.05;1.52;;;4.60;97.00;;;;;;5092295;28;20206;-45
2021/01/20 00:26:35;;;;;;;1.97;1.67;;;4.60;97.10;;;;;;5092563;28;20258;-48
2021/01/20 00:29:02;;;;;;;1.93;1.40;;;4.50;97.20;;;;;;5092652;28;20234;-46
2021/01/20 00:31:29;;;;;;;1.67;1.37;;;4.50;97.30;;;;;;5092272;28;20210;-48
2021/01/20 00:33:57;;;;;;;1.87;1.67;;;4.40;97.40;;;;;;5092290;28;20557;-47
2021/01/20 00:36:24;;;;;;;2.20;1.70;;;4.40;97.40;;;;;;5092198;28;20302;-48
2021/01/20 00:38:51;;;;;;;1.80;1.60;;;4.40;97.50;;;;;;5092497;28;20576;-48
2021/01/20 00:41:18;;;;;;;2.38;1.60;;;4.40;97.50;;;;;;5092417;28;20217;-46
2021/01/20 00:43:45;;;;;;;1.80;1.70;;;4.40;97.60;;;;;;5092405;28;20297;-44
2021/01/20 00:46:12;;;;;;;2.07;1.87;;;4.30;97.70;;;;;;5092059;28;20329;-43
2021/01/20 00:48:39;;;;;;;2.80;2.07;;;4.30;97.80;;;;;;5092301;28;20229;-44
2021/01/20 00:51:07;;;;;;;2.43;2.17;;;4.20;98.10;;;;;;5092082;28;20223;-43
2021/01/20 00:53:35;;;;;;;2.07;1.87;;;4.20;98.20;;;;;;5092101;28;20423;-47
2021/01/20 00:56:02;;;;;;;2.07;1.70;;;4.10;98.30;;;;;;5092234;28;20203;-48
2021/01/20 00:58:29;;;;;;;1.90;1.53;;;4.10;98.40;;;;;;5092118;28;20242;-44
2021/01/20 01:00:56;;;;;;;1.80;1.60;;;4.10;98.40;;;;;;5091974;28;20574;-45
2021/01/20 01:03:23;;;;;;;2.92;1.92;;;4.10;98.30;;;;;;5091990;28;20207;-47
2021/01/20 01:05:50;;;;;;;1.93;1.77;;;4.10;98.30;;;;;;5091962;28;20227;-47
2021/01/20 01:08:18;;;;;;;2.78;1.70;;;4.10;98.20;;;;;;5091917;28;20595;-45
2021/01/20 01:10:45;;;;;;;4.00;2.00;;;4.20;98.20;;;;;;5092276;28;20207;-44
2021/01/20 01:13:12;;;;;;;1.87;1.70;;;4.20;98.10;;;;;;5091864;28;20743;-47
2021/01/20 01:15:39;;;;;;;1.90;1.77;;;4.20;97.90;;;;;;5092014;28;20302;-43
2021/01/20 01:18:06;;;;;;;1.70;1.40;;;4.30;98.00;;;;;;5091987;28;20308;-43
2021/01/20 01:20:35;;;;;;;2.00;1.57;;;4.30;97.90;;;;;;5091968;28;20660;-46
2021/01/20 01:23:02;;;;;;;2.23;1.77;;;4.30;97.90;;;;;;5095972;28;20206;-46
2021/01/20 01:25:30;;;;;;;5.90;3.23;;;4.30;97.80;;;;;;5095879;28;20324;-46
2021/01/20 01:27:59;;;;;;;1.20;1.10;;;4.30;97.80;;;;;;5095971;28;20207;-46
2021/01/20 01:30:26;;;;;;;1.58;1.48;;;4.30;97.70;;;;;;5095818;28;20301;-47
2021/01/20 01:32:53;;;;;;;1.70;1.60;;;4.30;97.60;;;;;;5095681;28;20275;-48
2021/01/20 01:35:20;;;;;;;2.20;1.97;;;4.40;97.50;;;;;;5096000;28;20294;-48
2021/01/20 01:37:47;;;;;;;3.93;1.83;;;4.40;97.40;;;;;;5095931;28;20294;-45
2021/01/20 01:40:14;;;;;;;1.70;1.60;;;4.40;97.40;;;;;;5095933;28;20207;-48
2021/01/20 01:42:42;;;;;;;2.10;1.60;;;4.40;97.40;;;;;;5095680;28;20202;-48
2021/01/20 01:45:10;;;;;;;1.55;1.35;;;4.40;97.40;;;;;;5095604;28;20317;-46
2021/01/20 01:47:37;;;;;;;1.98;1.63;;;4.40;97.40;;;;;;5095521;28;20246;-48
2021/01/20 01:50:05;;;;;;;3.70;2.70;;;4.40;97.40;;;;;;5095374;28;20260;-46
2021/01/20 01:52:34;;;;;;;1.65;1.55;;;4.30;97.50;;;;;;5095640;28;20272;-47
2021/01/20 01:55:01;;;;;;;3.53;2.43;;;4.30;97.50;;;;;;5095578;28;20309;-47
2021/01/20 01:57:28;;;;;;;3.00;2.20;;;4.30;97.50;;;;;;5095313;28;20225;-47
2021/01/20 01:59:56;;;;;;;2.03;1.80;;;4.30;97.50;;;;;;5095273;28;20238;-47
2021/01/20 02:02:23;;;;;;;2.87;1.60;;;4.30;97.40;;;;;;5095542;28;20598;-45
2021/01/20 02:04:50;;;;;;;4.00;2.70;;;4.30;97.40;;;;;;5095325;28;20554;-44
2021/01/20 02:07:17;;;;;;;1.97;1.83;;;4.30;97.40;;;;;;5095186;28;20668;-49
2021/01/20 02:09:44;;;;;;;8.43;5.00;;;4.30;97.40;;;;;;5095095;28;20641;-46
2021/01/20 02:12:41;;;;;;;2.33;2.00;;;4.30;97.50;;;;;;5094792;28;20268;-44
2021/01/20 02:15:17;;;;;;;10.63;5.03;;;4.30;97.40;;;;;;5095214;28;20576;-45
2021/01/20 02:17:49;;;;;;;1.70;1.33;;;4.30;97.30;;;;;;5095047;28;20580;-44
2021/01/20 02:21:20;;;;;;;1.60;1.27;;;4.30;97.60;;;;;;5094797;28;20206;-47
2021/01/20 02:23:48;;;;;;;9.03;4.73;;;4.40;97.20;;;;;;5052628;28;20697;-45
2021/01/20 02:26:23;;;;;;;1.97;1.43;;;4.40;97.20;;;;;;5052290;28;20310;-47
2021/01/20 02:29:02;;;;;;;4.03;2.57;;;4.40;97.20;;;;;;5083024;28;20485;-45
2021/01/20 02:31:31;;;;;;;8.57;4.80;;;4.40;97.20;;;;;;5087211;28;20215;-48
2021/01/20 02:34:06;;;;;;;2.33;1.73;;;4.40;97.20;;;;;;5074176;28;20204;-43
2021/01/20 02:36:33;;;;;;;0.90;0.90;;;4.40;97.20;;;;;;5074444;28;20298;-47
2021/01/20 02:39:01;;;;;;;3.72;1.30;;;4.40;97.20;;;;;;5074239;28;20239;-44
2021/01/20 02:41:29;;;;;;;1.17;1.07;;;4.40;97.20;;;;;;5074026;28;20295;-47
2021/01/20 02:43:59;;;;;;;1.10;1.00;;;4.40;97.30;;;;;;5074242;28;20233;-45
2021/01/20 02:46:26;;;;;;;1.45;1.17;;;4.40;97.30;;;;;;5074372;28;20223;-46
2021/01/20 02:48:55;;;;;;;2.13;1.50;;;4.40;97.30;;;;;;5074157;28;20250;-45
2021/01/20 02:51:28;;;;;;;1.17;1.07;;;4.40;97.30;;;;;;5074126;28;20290;-47
2021/01/20 02:53:59;;;;;;;7.77;4.60;;;4.40;97.20;;;;;;5079960;28;20238;-48
2021/01/20 02:56:26;;;;;;;5.47;2.50;;;4.40;97.20;;;;;;5094127;28;20748;-46
2021/01/20 02:58:55;;;;;;;1.30;1.03;;;4.40;97.10;;;;;;5094229;28;20240;-46
2021/01/20 03:01:28;;;;;;;2.33;1.80;;;4.40;97.10;;;;;;5093985;28;20223;-46
2021/01/20 03:03:58;;;;;;;1.30;1.20;;;4.40;97.10;;;;;;5094125;28;20211;-45
2021/01/20 03:06:26;;;;;;;9.87;6.67;;;4.40;97.10;;;;;;5093885;28;20226;-48
2021/01/20 03:08:54;;;;;;;2.35;1.33;;;4.50;97.10;;;;;;5094053;28;20211;-49
2021/01/20 03:11:21;;;;;;;1.57;1.20;;;4.40;97.10;;;;;;5093930;28;20301;-48
2021/01/20 03:13:49;;;;;;;1.40;1.30;;;4.50;97.10;;;;;;5093730;28;20235;-47
2021/01/20 03:16:23;;;;;;;1.83;1.33;;;4.50;97.10;;;;;;5093783;28;20619;-44
2021/01/20 03:18:50;;;;;;;10.13;8.40;;;4.50;97.10;;;;;;5093824;28;20211;-44
2021/01/20 03:21:18;;;;;;;5.80;3.90;;;4.40;97.00;;;;;;5093721;28;20252;-49
2021/01/20 03:23:45;;;;;;;1.97;1.63;;;4.50;97.00;;;;;;5093677;28;20293;-46
2021/01/20 03:26:12;;;;;;;2.95;2.65;;;4.50;97.00;;;;;;5093490;28;20226;-49
2021/01/20 03:28:39;;;;;;;3.30;2.25;;;4.50;97.00;;;;;;5093540;28;20298;-47
2021/01/20 03:31:06;;;;;;;1.40;1.00;;;4.50;97.00;;;;;;5093448;28;20218;-46
2021/01/20 03:33:33;;;;;;;2.13;1.63;;;4.50;97.00;;;;;;5093389;28;20274;-47
2021/01/20 03:36:00;;;;;;;6.05;3.80;;;4.50;97.00;;;;;;5093683;28;20238;-46
2021/01/20 03:38:28;;;;;;;3.10;2.00;;;4.50;97.10;;;;;;5093270;28;20248;-48
2021/01/20 03:40:55;;;;;;;1.00;0.90;;;4.50;97.10;;;;;;5093442;28;20570;-43
2021/01/20 03:43:22;;;;;;;3.95;2.17;;;4.50;97.10;;;;;;5092858;28;20290;-43
2021/01/20 03:45:49;;;;;;;1.40;1.30;;;4.50;97.10;;;;;;5092833;28;20258;-45
2021/01/20 03:48:16;;;;;;;2.67;1.25;;;4.50;97.10;;;;;;5093075;28;20206;-45
2021/01/20 03:50:43;;;;;;;1.05;1.05;;;4.50;97.20;;;;;;5093277;28;20213;-46
2021/01/20 03:53:10;;;;;;;1.38;1.08;;;4.50;97.10;;;;;;5093264;28;20298;-46
2021/01/20 03:55:38;;;;;;;1.17;1.07;;;4.50;97.20;;;;;;5093130;28;20263;-50
2021/01/20 03:58:05;;;;;;;0.90;0.90;;;4.50;97.20;;;;;;5093081;28;20289;-46
2021/01/20 04:00:32;;;;;;;1.17;1.07;;;4.50;97.20;;;;;;5093035;28;20298;-46
2021/01/20 04:02:59;;;;;;;1.77;1.13;;;4.50;97.20;;;;;;5093387;28;20234;-48
2021/01/20 04:05:27;;;;;;;1.35;1.10;;;4.50;97.30;;;;;;5092835;28;20227;-45
2021/01/20 04:07:54;;;;;;;1.25;1.15;;;4.50;97.30;;;;;;5092768;28;20226;-48
2021/01/20 04:10:21;;;;;;;1.17;0.93;;;4.50;97.30;;;;;;5092847;28;20297;-43
2021/01/20 04:12:49;;;;;;;1.63;1.50;;;4.50;97.40;;;;;;5092772;28;20322;-46
2021/01/20 04:15:16;;;;;;;4.78;3.03;;;4.50;97.40;;;;;;5092477;28;20234;-45
2021/01/20 04:17:43;;;;;;;20.48;11.98;;;4.60;97.50;;;;;;5093062;28;20620;-47
2021/01/20 04:20:11;;;;;;;12.17;5.33;;;4.60;97.60;;;;;;5092718;28;20271;-45
2021/01/20 04:22:38;;;;;;;4.70;3.45;;;4.60;97.70;;;;;;5092640;28;20512;-46
2021/01/20 04:25:06;;;;;;;5.77;3.33;;;4.50;97.70;;;;;;5092738;28;20581;-49
2021/01/20 04:27:33;;;;;;;2.97;2.40;;;4.50;97.80;;;;;;5092540;28;20752;-47
2021/01/20 04:30:01;;;;;;;3.38;2.75;;;4.50;97.90;;;;;;5092396;28;20211;-48
2021/01/20 04:32:28;;;;;;;2.92;2.45;;;4.50;97.90;;;;;;5092555;28;20206;-48
2021/01/20 04:34:55;;;;;;;3.50;2.10;;;4.40;98.00;;;;;;5092552;28;20581;-45
2021/01/20 04:37:22;;;;;;;2.40;2.10;;;4.40;98.10;;;;;;5092503;28;20226;-48
2021/01/20 04:39:49;;;;;;;2.80;2.23;;;4.30;98.20;;;;;;5092430;28;20649;-48
2021/01/20 04:42:16;;;;;;;2.20;1.57;;;4.30;98.20;;;;;;5092256;28;20268;-48
2021/01/20 04:44:46;;;;;;;3.22;1.75;;;4.30;98.30;;;;;;5092487;28;20293;-45
2021/01/20 04:47:16;;;;;;;1.90;1.40;;;4.30;98.30;;;;;;5092453;28;20311;-49
2021/01/20 04:49:45;;;;;;;1.73;1.47;;;4.30;98.40;;;;;;5092423;28;20279;-41
2021/01/20 04:52:16;;;;;;;2.00;1.73;;;4.20;98.40;;;;;;5092194;28;20210;-46
2021/01/20 04:54:44;;;;;;;1.73;1.50;;;4.10;98.40;;;;;;5092004;28;20301;-44
2021/01/20 04:57:13;;;;;;;2.22;1.77;;;4.00;98.50;;;;;;5092398;28;20728;-47
2021/01/20 04:59:42;;;;;;;2.50;1.83;;;4.00;98.60;;;;;;5092058;28;20211;-47
2021/01/20 05:02:09;;;;;;;2.65;1.67;;;3.90;98.70;;;;;;5092098;28;20327;-47
2021/01/20 05:04:39;;;;;;;3.40;1.67;;;3.90;98.80;;;;;;5091916;28;20332;-49
2021/01/20 05:07:07;;;;;;;3.17;1.70;;;3.80;98.90;;;;;;5092048;28;20223;-50
2021/01/20 05:09:36;;;;;;;1.87;1.63;;;3.60;99.10;;;;;;5092228;28;20576;-47
2021/01/20 05:12:03;;;;;;;3.42;2.15;;;3.60;99.30;;;;;;5091796;28;20277;-45
2021/01/20 05:14:30;;;;;;;3.90;2.00;;;3.50;99.40;;;;;;5092306;28;20237;-49
2021/01/20 05:17:07;;;;;;;3.25;1.85;;;3.40;99.50;;;;;;5091876;28;20636;-46
2021/01/20 05:19:38;;;;;;;1.90;1.60;;;3.40;99.60;;;;;;5092231;28;20289;-45
2021/01/20 05:22:06;;;;;;;6.18;2.17;;;3.30;99.80;;;;;;5091924;28;20246;-48
2021/01/20 05:24:34;;;;;;;2.75;1.70;;;3.30;99.60;;;;;;5091752;28;20264;-44
2021/01/20 05:27:02;;;;;;;2.00;1.70;;;3.30;99.60;;;;;;5091495;28;20273;-44
2021/01/20 05:29:29;;;;;;;2.73;1.60;;;3.30;99.60;;;;;;5092057;28;20284;-49
2021/01/20 05:31:56;;;;;;;1.97;1.63;;;3.30;99.50;;;;;;5091731;28;20305;-45
2021/01/20 05:34:29;;;;;;;2.67;1.98;;;3.30;99.50;;;;;;5091720;28;20215;-43
2021/01/20 05:37:05;;;;;;;3.88;2.17;;;3.30;99.60;;;;;;5091917;28;20286;-47
2021/01/20 05:39:33;;;;;;;3.80;3.08;;;3.20;99.60;;;;;;5091999;28;20216;-44
2021/01/20 05:42:05;;;;;;;4.63;2.17;;;3.10;99.70;;;;;;5091613;28;20216;-43
2021/01/20 05:44:32;;;;;;;1.83;1.63;;;3.10;99.80;;;;;;5091510;28;20657;-45
2021/01/20 05:47:06;;;;;;;3.20;1.83;;;3.10;99.80;;;;;;5091691;28;20258;-43
2021/01/20 05:49:33;;;;;;;2.10;1.58;;;3.00;99.80;;;;;;5091715;28;20286;-46
2021/01/20 05:52:00;;;;;;;3.63;1.67;;;3.00;99.80;;;;;;5091634;28;20732;-43
2021/01/20 05:54:33;;;;;;;2.08;1.85;;;3.00;99.80;;;;;;5091882;28;20213;-45
2021/01/20 05:57:14;;;;;;;5.13;1.90;;;3.00;99.80;;;;;;5091628;28;20241;-45
2021/01/20 05:59:42;;;;;;;3.67;2.40;;;3.00;99.80;;;;;;5091662;28;20286;-45
2021/01/20 06:02:10;;;;;;;3.77;2.27;;;2.90;99.80;;;;;;5091833;28;20626;-42
2021/01/20 06:04:38;;;;;;;2.75;2.00;;;2.90;99.90;;;;;;5091900;28;20230;-44
2021/01/20 06:07:07;;;;;;;2.07;1.80;;;2.80;99.90;;;;;;5091909;28;20231;-45
2021/01/20 06:09:37;;;;;;;2.10;1.88;;;2.70;99.90;;;;;;5095262;28;20638;-43
2021/01/20 06:12:04;;;;;;;2.05;1.70;;;2.60;99.90;;;;;;5094908;28;20273;-44
2021/01/20 06:14:31;;;;;;;2.35;1.85;;;2.60;99.90;;;;;;5095206;28;20238;-44
2021/01/20 06:17:06;;;;;;;2.53;2.33;;;2.50;99.90;;;;;;5095296;28;20272;-44
2021/01/20 06:19:37;;;;;;;2.88;2.30;;;2.50;99.90;;;;;;5094870;28;20644;-45
2021/01/20 06:22:06;;;;;;;3.80;2.63;;;2.60;99.90;;;;;;5095019;28;20577;-44
2021/01/20 06:24:40;;;;;;;3.47;2.87;;;2.60;99.90;;;;;;5095029;28;20307;-44
2021/01/20 06:27:13;;;;;;;2.93;2.60;;;2.70;99.90;;;;;;5094937;28;20340;-46
2021/01/20 06:29:45;;;;;;;4.72;2.50;;;2.70;99.90;;;;;;5094904;28;20249;-43
2021/01/20 06:32:19;;;;;;;3.63;2.83;;;2.60;99.90;;;;;;5094792;28;20253;-43
2021/01/20 06:34:54;;;;;;;4.07;2.90;;;2.60;99.90;;;;;;5094672;28;20310;-44
2021/01/20 06:37:38;;;;;;;2.75;2.35;;;2.60;99.90;;;;;;5094972;28;20209;-45
2021/01/20 06:40:38;;;;;;;5.50;2.57;;;2.50;99.90;;;;;;5094831;28;20289;-44
2021/01/20 06:43:31;;;;;;;3.50;3.00;;;2.50;99.90;;;;;;5094541;28;20285;-43
2021/01/20 06:46:11;;;;;;;5.07;3.67;;;2.50;99.90;;;;;;5094419;28;20738;-45
2021/01/20 06:49:11;;;;;;;4.63;4.13;;;2.50;99.90;;;;;;5094428;28;20770;-48
2021/01/20 06:51:39;;;;;;;4.90;3.95;;;2.50;99.90;;;;;;5094272;28;20242;-44
2021/01/20 06:54:14;;;;;;;5.30;4.00;;;2.50;99.90;;;;;;5094486;28;20212;-44
2021/01/20 06:56:44;;;;;;;4.00;3.60;;;2.50;99.90;;;;;;5094263;28;20293;-44
2021/01/20 06:59:19;;;;;;;5.77;4.00;;;2.50;99.90;;;;;;5094230;28;20256;-46
2021/01/20 07:02:11;;;;;;;7.03;4.77;;;2.50;99.90;;;;;;5094277;28;20226;-46
2021/01/20 07:05:03;;;;;;;6.20;4.40;;;2.60;99.90;;;;;;5094406;28;20207;-43
2021/01/20 07:08:00;;;;;;;7.20;4.90;;;2.50;99.90;;;;;;5094224;28;20322;-43
2021/01/20 07:10:47;;;;;;;11.80;8.60;;;2.50;99.90;;;;;;5094246;28;20628;-45
2021/01/20 07:13:21;;;;;;;25.40;18.77;;;2.50;99.90;;;;;;5093851;28;20249;-48
2021/01/20 07:15:53;;;;;;;17.23;14.02;;;2.60;99.90;;;;;;5093977;28;20209;-46
2021/01/20 07:18:23;;;;;;;13.50;9.93;;;2.60;99.90;;;;;;5093127;28;20302;-45
2021/01/20 07:20:51;;;;;;;8.20;6.60;;;2.60;99.90;;;;;;5093293;28;20207;-45
2021/01/20 07:23:19;;;;;;;12.45;9.30;;;2.80;99.90;;;;;;5093956;28;20638;-46
2021/01/20 07:25:48;;;;;;;7.77;6.97;;;2.80;99.90;;;;;;5093867;28;20306;-46
2021/01/20 07:28:15;;;;;;;7.93;6.07;;;2.90;99.90;;;;;;5093890;28;20491;-45
2021/01/20 07:30:43;;;;;;;5.73;5.20;;;2.90;99.90;;;;;;5093694;28;20420;-47
2021/01/20 07:33:21;;;;;;;7.90;5.53;;;3.00;99.90;;;;;;5093629;28;20296;-44
2021/01/20 07:35:50;;;;;;;6.97;5.57;;;3.10;99.90;;;;;;5093537;28;20227;-45
2021/01/20 07:38:17;;;;;;;6.63;4.20;;;3.20;99.90;;;;;;5093633;28;20666;-46
2021/01/20 07:40:45;;;;;;;6.60;4.03;;;3.30;99.90;;;;;;5093469;28;20250;-46
2021/01/20 07:43:22;;;;;;;9.53;6.17;;;3.40;99.90;;;;;;5093357;28;20203;-44
2021/01/20 07:45:52;;;;;;;8.67;7.03;;;3.50;99.90;;;;;;5093003;28;20316;-45
2021/01/20 07:48:29;;;;;;;9.27;7.82;;;3.60;99.90;;;;;;5093467;28;20210;-45
2021/01/20 07:50:56;;;;;;;8.23;6.03;;;3.70;99.90;;;;;;5093431;28;20570;-46
2021/01/20 07:53:23;;;;;;;6.20;5.30;;;3.80;99.80;;;;;;5093291;28;20211;-45
2021/01/20 07:55:55;;;;;;;5.88;4.53;;;3.90;99.70;;;;;;5093238;28;20257;-50
2021/01/20 07:58:29;;;;;;;10.53;7.00;;;4.00;99.60;;;;;;5093273;28;20226;-46
2021/01/20 08:00:57;;;;;;;15.20;13.63;;;4.00;99.60;;;;;;5093162;28;20295;-45
2021/01/20 08:03:33;;;;;;;10.18;9.10;;;4.10;99.50;;;;;;5093014;28;20210;-44
2021/01/20 08:06:01;;;;;;;6.80;6.15;;;4.20;99.50;;;;;;5093008;28;20219;-45
2021/01/20 08:08:28;;;;;;;5.90;4.13;;;4.30;99.40;;;;;;5093093;28;20629;-45
2021/01/20 08:11:00;;;;;;;5.40;4.70;;;4.40;99.20;;;;;;5093066;28;20210;-41
2021/01/20 08:13:30;;;;;;;3.25;2.95;;;4.50;99.00;;;;;;5092954;28;20321;-44
2021/01/20 08:15:58;;;;;;;11.63;6.63;;;4.60;98.90;;;;;;5092816;28;20213;-43
2021/01/20 08:18:26;;;;;;;4.75;3.88;;;4.70;98.70;;;;;;5092791;28;20277;-43
2021/01/20 08:20:53;;;;;;;4.50;3.17;;;4.80;98.60;;;;;;5092791;28;20232;-44
2021/01/20 08:23:38;;;;;;;6.40;4.75;;;4.90;98.50;;;;;;5092736;28;20207;-44
2021/01/20 08:26:06;;;;;;;16.67;12.10;;;5.00;98.60;;;;;;5092859;28;20306;-45
2021/01/20 08:28:33;;;;;;;34.83;24.27;;;5.00;98.60;;;;;;5092777;28;20202;-47
2021/01/20 08:31:19;;;;;;;5.63;4.50;;;5.20;98.40;;;;;;5092229;28;20207;-45
2021/01/20 08:33:46;;;;;;;12.25;8.40;;;5.30;98.10;;;;;;5092496;28;20631;-45
2021/01/20 08:36:22;;;;;;;14.82;9.93;;;5.40;97.80;;;;;;5092496;28;20206;-49
2021/01/20 08:38:49;;;;;;;11.40;8.63;;;5.50;97.60;;;;;;5092596;28;20210;-47
2021/01/20 08:41:17;;;;;;;19.27;11.55;;;5.60;97.50;;;;;;5092498;28;20293;-47
2021/01/20 08:43:44;;;;;;;8.05;6.93;;;5.70;97.50;;;;;;5092322;28;20256;-45
2021/01/20 08:46:22;;;;;;;4.82;3.00;;;5.80;97.40;;;;;;5092260;28;20306;-46
2021/01/20 08:48:57;;;;;;;4.25;3.60;;;5.90;97.20;;;;;;5092377;28;20580;-48
2021/01/20 08:51:24;;;;;;;3.83;3.42;;;6.00;97.10;;;;;;5092346;28;20613;-46
2021/01/20 08:53:51;;;;;;;14.50;6.80;;;6.10;97.00;;;;;;5092006;28;20238;-45
2021/01/20 08:56:26;;;;;;;6.53;4.95;;;6.10;96.80;;;;;;5092014;28;20249;-45
2021/01/20 08:59:08;;;;;;;5.97;4.70;;;6.20;96.60;;;;;;5092163;28;20202;-49
2021/01/20 09:01:36;;;;;;;4.00;3.15;;;6.30;96.60;;;;;;5091919;28;20592;-44
2021/01/20 09:04:04;;;;;;;4.50;3.47;;;6.30;96.50;;;;;;5092080;28;20569;-48
2021/01/20 09:06:31;;;;;;;3.13;2.83;;;6.40;96.40;;;;;;5091934;28;20222;-45
2021/01/20 09:08:59;;;;;;;4.95;3.88;;;6.40;96.30;;;;;;5091826;28;20206;-45
2021/01/20 09:11:26;;;;;;;5.47;3.70;;;6.40;96.20;;;;;;5092224;28;20297;-47
2021/01/20 09:13:54;;;;;;;4.43;3.67;;;6.50;96.20;;;;;;5091687;28;20243;-46
2021/01/20 09:16:27;;;;;;;4.30;3.25;;;6.50;96.10;;;;;;5091808;28;20289;-44
2021/01/20 09:18:55;;;;;;;4.18;3.50;;;6.60;96.10;;;;;;5091754;28;20322;-47
2021/01/20 09:21:22;;;;;;;4.45;3.17;;;6.60;96.00;;;;;;5091549;28;20202;-51
2021/01/20 09:23:49;;;;;;;3.28;2.95;;;6.70;95.80;;;;;;5091693;28;20301;-46
2021/01/20 09:26:16;;;;;;;3.13;2.83;;;6.80;95.70;;;;;;5091693;28;20293;-49
2021/01/20 09:28:43;;;;;;;4.13;3.38;;;6.80;95.70;;;;;;5091823;28;20215;-46
2021/01/20 09:31:10;;;;;;;4.13;3.53;;;6.70;95.60;;;;;;5091934;28;20295;-46
2021/01/20 09:33:37;;;;;;;4.88;3.70;;;6.70;95.70;;;;;;5091880;28;20238;-47
2021/01/20 09:36:06;;;;;;;3.93;3.10;;;6.70;95.70;;;;;;5092060;28;20695;-47
2021/01/20 09:38:33;;;;;;;3.60;3.30;;;6.70;95.70;;;;;;5092025;28;20207;-45
2021/01/20 09:41:01;;;;;;;4.20;3.38;;;6.80;95.90;;;;;;5092067;28;20211;-45
2021/01/20 09:43:28;;;;;;;2.60;2.40;;;6.90;95.60;;;;;;5094511;28;20301;-48
2021/01/20 09:45:55;;;;;;;3.33;2.90;;;7.00;95.40;;;;;;5095846;28;20214;-48
2021/01/20 09:48:22;;;;;;;3.13;2.83;;;7.00;95.20;;;;;;5095605;28;20549;-42
2021/01/20 09:50:49;;;;;;;4.50;3.60;;;7.00;95.20;;;;;;5095536;28;20215;-41
2021/01/20 09:53:17;;;;;;;9.73;4.10;;;7.00;95.20;;;;;;5095504;28;20673;-44
2021/01/20 09:55:44;;;;;;;4.53;3.20;;;7.00;95.20;;;;;;5095615;28;20290;-47
2021/01/20 09:58:11;;;;;;;3.25;2.90;;;7.10;95.10;;;;;;5095615;28;20210;-52
2021/01/20 10:00:38;;;;;;;3.30;2.77;;;7.10;95.00;;;;;;5095388;28;20329;-52
2021/01/20 10:03:06;;;;;;;3.70;3.35;;;7.30;94.90;;;;;;5095400;28;20298;-49
2021/01/20 10:05:34;;;;;;;5.50;5.00;;;7.30;94.80;;;;;;5095581;28;20294;-46
2021/01/20 10:08:01;;;;;;;5.47;4.07;;;7.40;94.60;;;;;;5095404;28;20726;-48
2021/01/20 10:10:29;;;;;;;4.32;3.97;;;7.60;94.40;;;;;;5095273;28;20211;-47
2021/01/20 10:12:56;;;;;;;5.43;4.20;;;7.70;94.20;;;;;;5095087;28;20249;-46
2021/01/20 10:15:24;;;;;;;5.18;3.47;;;7.80;94.00;;;;;;5095692;28;20207;-50
2021/01/20 10:17:52;;;;;;;3.65;3.35;;;7.90;93.90;;;;;;5095168;28;20238;-49
2021/01/20 10:20:20;;;;;;;5.07;3.90;;;8.00;93.60;;;;;;5095195;28;20202;-48
2021/01/20 10:22:47;;;;;;;6.20;3.53;;;7.90;93.50;;;;;;5094998;28;20211;-47
2021/01/20 10:25:15;;;;;;;4.20;3.25;;;8.00;93.40;;;;;;5094948;28;20285;-50
2021/01/20 10:27:43;;;;;;;3.00;2.75;;;8.00;93.20;;;;;;5094923;28;20267;-48
2021/01/20 10:30:11;;;;;;;3.60;2.33;;;8.10;93.00;;;;;;5095059;28;20206;-46
2021/01/20 10:32:38;;;;;;;3.10;2.75;;;8.10;92.70;;;;;;5094720;28;20202;-48
2021/01/20 10:35:08;;;;;;;4.80;2.17;;;8.10;92.60;;;;;;5094763;28;20218;-47
2021/01/20 10:37:36;;;;;;;2.67;2.28;;;8.20;92.20;;;;;;5094818;28;20238;-46
2021/01/20 10:40:04;;;;;;;3.38;2.60;;;8.20;92.20;;;;;;5094669;28;20293;-49
2021/01/20 10:42:31;;;;;;;4.53;2.40;;;8.30;91.90;;;;;;5094575;28;20203;-47
2021/01/20 10:44:59;;;;;;;3.35;2.38;;;8.40;91.90;;;;;;5094438;28;20210;-50
2021/01/20 10:47:26;;;;;;;2.50;2.22;;;8.40;91.90;;;;;;5094573;28;20301;-49
2021/01/20 10:49:53;;;;;;;2.70;2.45;;;8.50;91.80;;;;;;5094818;28;20264;-50
2021/01/20 10:52:20;;;;;;;1.77;1.30;;;8.60;91.20;;;;;;5094571;28;20732;-48
2021/01/20 10:54:47;;;;;;;5.65;2.45;;;8.60;91.10;;;;;;5093712;28;20764;-47
2021/01/20 10:57:14;;;;;;;2.42;2.20;;;8.60;91.10;;;;;;5094363;28;20307;-48
2021/01/20 10:59:41;;;;;;;2.72;1.90;;;8.70;91.00;;;;;;5094083;28;20298;-45
2021/01/20 11:02:10;;;;;;;2.58;2.22;;;8.80;91.00;;;;;;5094184;28;20661;-50
2021/01/20 11:04:38;;;;;;;4.25;2.00;;;8.90;90.60;;;;;;5094027;28;20253;-46
2021/01/20 11:07:06;;;;;;;2.53;1.90;;;8.90;90.40;;;;;;5093758;28;20313;-47
2021/01/20 11:09:33;;;;;;;4.40;3.13;;;9.00;90.40;;;;;;5094004;28;20214;-44
2021/01/20 11:12:01;;;;;;;4.55;3.08;;;9.20;90.20;;;;;;5093932;28;20270;-47
2021/01/20 11:14:29;;;;;;;2.67;2.00;;;9.30;90.00;;;;;;5094139;28;20202;-45
2021/01/20 11:16:57;;;;;;;1.70;1.58;;;9.40;88.40;;;;;;5093838;28;20210;-47
2021/01/20 11:19:25;;;;;;;7.68;2.65;;;9.40;87.70;;;;;;5094044;28;20214;-51
2021/01/20 11:21:54;;;;;;;3.03;1.83;;;9.40;88.10;;;;;;5093780;28;20217;-50
2021/01/20 11:24:22;;;;;;;3.55;1.80;;;9.30;87.30;;;;;;5093678;28;20273;-50
2021/01/20 11:26:49;;;;;;;3.47;1.40;;;9.30;87.50;;;;;;5093816;28;20226;-52
2021/01/20 11:29:16;;;;;;;2.55;1.88;;;9.30;87.00;;;;;;5093941;28;20214;-52
2021/01/20 11:31:43;;;;;;;2.25;1.70;;;9.20;87.20;;;;;;5093725;28;20202;-49
2021/01/20 11:34:10;;;;;;;3.95;2.00;;;9.20;87.40;;;;;;5093426;28;20290;-49
2021/01/20 11:36:38;;;;;;;2.40;2.08;;;9.30;87.30;;;;;;5093418;28;20617;-49
2021/01/20 11:39:06;;;;;;;2.80;2.00;;;9.40;87.10;;;;;;5093362;28;20459;-47
2021/01/20 11:41:33;;;;;;;2.28;1.77;;;9.50;86.30;;;;;;5093769;28;20222;-47
2021/01/20 11:44:00;;;;;;;3.28;1.88;;;9.50;86.00;;;;;;5093501;28;20257;-50
2021/01/20 11:46:30;;;;;;;3.45;1.80;;;9.60;85.80;;;;;;5093158;28;20258;-48
2021/01/20 11:48:58;;;;;;;2.63;2.38;;;9.60;85.60;;;;;;5093316;28;20210;-51
2021/01/20 11:51:25;;;;;;;2.58;1.75;;;9.60;85.30;;;;;;5093287;28;20214;-46
2021/01/20 11:53:53;;;;;;;2.03;1.83;;;9.70;85.40;;;;;;5093406;28;20210;-48
2021/01/20 11:56:20;;;;;;;2.35;2.00;;;9.70;84.50;;;;;;5093021;28;20214;-51
2021/01/20 11:58:47;;;;;;;5.97;2.33;;;9.70;84.50;;;;;;5093396;28;20214;-47
2021/01/20 12:01:14;;;;;;;2.45;2.05;;;9.70;84.70;;;;;;5092904;28;20293;-49
2021/01/20 12:03:41;;;;;;;2.85;2.22;;;9.70;84.80;;;;;;5092828;28;20660;-49
2021/01/20 12:06:12;;;;;;;3.97;2.22;;;9.70;84.50;;;;;;5092311;28;20207;-46
2021/01/20 12:08:39;;;;;;;3.15;2.45;;;9.70;85.00;;;;;;5092993;28;20265;-47
2021/01/20 12:11:09;;;;;;;5.63;2.28;;;9.60;85.00;;;;;;5092754;28;20602;-46
2021/01/20 12:13:36;;;;;;;3.40;2.55;;;9.60;84.70;;;;;;5092669;28;20243;-49
2021/01/20 12:16:03;;;;;;;4.28;2.65;;;9.50;84.90;;;;;;5092906;28;20238;-49
2021/01/20 12:18:30;;;;;;;3.65;2.33;;;9.60;85.10;;;;;;5092763;28;20217;-51
2021/01/20 12:20:59;;;;;;;4.30;3.00;;;9.60;85.00;;;;;;5092676;28;20302;-51
2021/01/20 12:23:26;;;;;;;6.45;3.47;;;9.70;84.80;;;;;;5092549;28;20212;-49
2021/01/20 12:25:54;;;;;;;8.25;5.97;;;9.70;84.50;;;;;;5092736;28;20242;-49
2021/01/20 12:28:21;;;;;;;10.30;4.82;;;9.60;84.50;;;;;;5092536;28;20317;-50
2021/01/20 12:30:48;;;;;;;10.60;4.32;;;9.60;84.60;;;;;;5092472;28;20206;-51
2021/01/20 12:33:15;;;;;;;6.35;5.03;;;9.60;84.50;;;;;;5092334;28;20206;-50
2021/01/20 12:35:43;;;;;;;7.38;4.68;;;9.60;84.60;;;;;;5092556;28;20304;-49
2021/01/20 12:38:10;;;;;;;5.55;3.22;;;9.50;85.30;;;;;;5092299;28;20298;-49
2021/01/20 12:40:37;;;;;;;3.97;2.88;;;9.50;84.60;;;;;;5092385;28;20229;-50
2021/01/20 12:43:04;;;;;;;3.90;3.25;;;9.40;84.50;;;;;;5092389;28;20381;-46
2021/01/20 12:45:32;;;;;;;4.28;3.88;;;9.30;84.70;;;;;;5092234;28;20213;-47
2021/01/20 12:48:02;;;;;;;4.88;4.38;;;9.20;85.20;;;;;;5092095;28;20594;-45
2021/01/20 12:50:30;;;;;;;8.05;4.00;;;9.20;85.40;;;;;;5092331;28;20206;-49
2021/01/20 12:52:58;;;;;;;5.18;4.85;;;9.20;85.30;;;;;;5092308;28;20322;-47
2021/01/20 12:55:26;;;;;;;4.53;4.13;;;9.30;85.10;;;;;;5092254;28;20263;-49
2021/01/20 12:57:53;;;;;;;4.60;4.20;;;9.40;84.80;;;;;;5091973;28;20206;-48
2021/01/20 13:00:21;;;;;;;8.30;7.03;;;9.40;84.40;;;;;;5091929;28;20674;-48
2021/01/20 13:02:50;;;;;;;5.88;3.40;;;9.60;84.20;;;;;;5092298;28;20203;-46
2021/01/20 13:05:17;;;;;;;3.60;2.70;;;9.70;83.90;;;;;;5092137;28;20222;-48
2021/01/20 13:07:44;;;;;;;3.08;2.85;;;9.70;83.50;;;;;;5092051;28;20554;-47